sensor_id;sensor_type;location;lat;lon;timestamp;temperature;humidity
23869;DHT22;12115;47.128;15.422;2022-12-18T00:00:45;-4.80;99.90
23869;DHT22;12115;47.128;15.422;2022-12-18T00:03:35;-4.80;99.90
23869;DHT22;12115;47.128;15.422;2022-12-18T00:06:18;-4.80;99.90
23869;DHT22;12115;47.128;15.422;2022-12-18T00:08:48;-4.80;99.90
23869;DHT22;12115;47.128;15.422;2022-12-18T00:11:24;-4.90;99.90
23869;DHT22;12115;47.128;15.422;2022-12-18T00:13:57;-4.90;99.90
23869;DHT22;12115;47.128;15.422;2022-12-18T00:16:28;-4.90;99.90
23869;DHT22;12115;47.128;15.422;2022-12-18T00:19:02;-4.90;99.90
23869;DHT22;12115;47.128;15.422;2022-12-18T00:21:36;-4.90;99.90
23869;DHT22;12115;47.128;15.422;2022-12-18T00:24:06;-4.90;99.90
23869;DHT22;12115;47.128;15.422;2022-12-18T00:26:42;-4.90;99.90
23869;DHT22;12115;47.128;15.422;2022-12-18T00:29:13;-4.90;99.90
23869;DHT22;12115;47.128;15.422;2022-12-18T00:31:43;-5.00;99.90
23869;DHT22;12115;47.128;15.422;2022-12-18T00:34:17;-5.00;99.90
23869;DHT22;12115;47.128;15.422;2022-12-18T00:36:53;-5.00;99.90
23869;DHT22;12115;47.128;15.422;2022-12-18T00:39:44;-5.00;99.90
23869;DHT22;12115;47.128;15.422;2022-12-18T00:42:27;-5.00;99.90
23869;DHT22;12115;47.128;15.422;2022-12-18T00:45:19;-5.10;99.90
23869;DHT22;12115;47.128;15.422;2022-12-18T00:47:51;-5.10;99.90
23869;DHT22;12115;47.128;15.422;2022-12-18T00:50:23;-5.10;99.90
23869;DHT22;12115;47.128;15.422;2022-12-18T00:53:03;-5.10;99.90
23869;DHT22;12115;47.128;15.422;2022-12-18T00:55:42;-5.20;99.90
23869;DHT22;12115;47.128;15.422;2022-12-18T00:58:16;-5.20;99.90
23869;DHT22;12115;47.128;15.422;2022-12-18T01:00:56;-5.20;99.90
23869;DHT22;12115;47.128;15.422;2022-12-18T01:03:30;-5.30;99.90
23869;DHT22;12115;47.128;15.422;2022-12-18T01:06:13;-5.30;99.90
23869;DHT22;12115;47.128;15.422;2022-12-18T01:08:45;-5.30;99.90
23869;DHT22;12115;47.128;15.422;2022-12-18T01:11:24;-5.30;99.90
23869;DHT22;12115;47.128;15.422;2022-12-18T01:14:01;-5.30;99.90
23869;DHT22;12115;47.128;15.422;2022-12-18T01:16:35;-5.30;99.90
23869;DHT22;12115;47.128;15.422;2022-12-18T01:19:16;-5.30;99.90
23869;DHT22;12115;47.128;15.422;2022-12-18T01:21:54;-5.30;99.90
23869;DHT22;12115;47.128;15.422;2022-12-18T01:24:25;-5.40;99.90
23869;DHT22;12115;47.128;15.422;2022-12-18T01:27:09;-5.40;99.90
23869;DHT22;12115;47.128;15.422;2022-12-18T01:30:00;-5.40;99.90
23869;DHT22;12115;47.128;15.422;2022-12-18T01:32:39;-5.40;99.90
23869;DHT22;12115;47.128;15.422;2022-12-18T01:35:19;-5.50;99.90
23869;DHT22;12115;47.128;15.422;2022-12-18T01:41:04;-5.50;99.90
23869;DHT22;12115;47.128;15.422;2022-12-18T01:43:52;-5.50;99.90
23869;DHT22;12115;47.128;15.422;2022-12-18T01:46:25;-5.50;99.90
23869;DHT22;12115;47.128;15.422;2022-12-18T01:49:07;-5.50;99.90
23869;DHT22;12115;47.128;15.422;2022-12-18T01:52:06;-5.50;99.90
23869;DHT22;12115;47.128;15.422;2022-12-18T01:54:49;-5.60;99.90
23869;DHT22;12115;47.128;15.422;2022-12-18T01:57:31;-5.50;99.90
23869;DHT22;12115;47.128;15.422;2022-12-18T02:00:27;-5.70;99.90
23869;DHT22;12115;47.128;15.422;2022-12-18T02:03:14;-5.70;99.90
23869;DHT22;12115;47.128;15.422;2022-12-18T02:06:30;-5.70;99.90
23869;DHT22;12115;47.128;15.422;2022-12-18T02:09:24;-5.70;99.90
23869;DHT22;12115;47.128;15.422;2022-12-18T02:12:21;-5.70;99.90
23869;DHT22;12115;47.128;15.422;2022-12-18T02:15:13;-5.70;99.90
23869;DHT22;12115;47.128;15.422;2022-12-18T02:18:18;-5.80;99.90
23869;DHT22;12115;47.128;15.422;2022-12-18T02:26:58;-5.80;99.90
23869;DHT22;12115;47.128;15.422;2022-12-18T02:29:52;-5.80;99.90
23869;DHT22;12115;47.128;15.422;2022-12-18T02:32:35;-5.80;99.90
23869;DHT22;12115;47.128;15.422;2022-12-18T02:35:29;-5.80;99.90
23869;DHT22;12115;47.128;15.422;2022-12-18T02:38:06;-5.90;99.90
23869;DHT22;12115;47.128;15.422;2022-12-18T02:40:51;-5.90;99.90
23869;DHT22;12115;47.128;15.422;2022-12-18T02:43:25;-5.90;99.90
23869;DHT22;12115;47.128;15.422;2022-12-18T02:51:57;-5.90;99.90
23869;DHT22;12115;47.128;15.422;2022-12-18T03:00:31;-6.00;99.90
23869;DHT22;12115;47.128;15.422;2022-12-18T03:03:26;-6.00;99.90
23869;DHT22;12115;47.128;15.422;2022-12-18T03:06:32;-6.00;99.90
23869;DHT22;12115;47.128;15.422;2022-12-18T03:09:32;-6.00;99.90
23869;DHT22;12115;47.128;15.422;2022-12-18T03:12:18;-6.00;99.90
23869;DHT22;12115;47.128;15.422;2022-12-18T03:17:40;-6.10;99.90
23869;DHT22;12115;47.128;15.422;2022-12-18T03:20:34;-6.10;99.90
23869;DHT22;12115;47.128;15.422;2022-12-18T03:23:22;-6.10;99.90
23869;DHT22;12115;47.128;15.422;2022-12-18T03:26:01;-6.10;99.90
23869;DHT22;12115;47.128;15.422;2022-12-18T03:28:40;-6.10;99.90
23869;DHT22;12115;47.128;15.422;2022-12-18T03:31:28;-6.10;99.90
23869;DHT22;12115;47.128;15.422;2022-12-18T03:34:17;-6.10;99.90
23869;DHT22;12115;47.128;15.422;2022-12-18T03:36:47;-6.20;99.90
23869;DHT22;12115;47.128;15.422;2022-12-18T03:39:18;-6.20;99.90
23869;DHT22;12115;47.128;15.422;2022-12-18T03:45:37;-6.20;99.90
23869;DHT22;12115;47.128;15.422;2022-12-18T03:48:29;-6.20;99.90
23869;DHT22;12115;47.128;15.422;2022-12-18T03:54:28;-6.20;99.90
23869;DHT22;12115;47.128;15.422;2022-12-18T03:57:23;-6.20;99.90
23869;DHT22;12115;47.128;15.422;2022-12-18T04:00:10;-6.20;99.90
23869;DHT22;12115;47.128;15.422;2022-12-18T04:03:13;-6.20;99.90
23869;DHT22;12115;47.128;15.422;2022-12-18T04:05:55;-6.30;99.90
23869;DHT22;12115;47.128;15.422;2022-12-18T04:08:45;-6.30;99.90
23869;DHT22;12115;47.128;15.422;2022-12-18T04:11:22;-6.30;99.90
23869;DHT22;12115;47.128;15.422;2022-12-18T04:14:01;-6.30;99.90
23869;DHT22;12115;47.128;15.422;2022-12-18T04:16:51;-6.30;99.90
23869;DHT22;12115;47.128;15.422;2022-12-18T04:19:28;-6.30;99.90
23869;DHT22;12115;47.128;15.422;2022-12-18T04:22:05;-6.30;99.90
23869;DHT22;12115;47.128;15.422;2022-12-18T04:24:41;-6.40;99.90
23869;DHT22;12115;47.128;15.422;2022-12-18T04:27:24;-6.40;99.90
23869;DHT22;12115;47.128;15.422;2022-12-18T04:30:08;-6.40;99.90
23869;DHT22;12115;47.128;15.422;2022-12-18T04:32:50;-6.40;99.90
23869;DHT22;12115;47.128;15.422;2022-12-18T04:35:25;-6.40;99.90
23869;DHT22;12115;47.128;15.422;2022-12-18T04:37:55;-6.40;99.90
23869;DHT22;12115;47.128;15.422;2022-12-18T04:40:29;-6.40;99.90
23869;DHT22;12115;47.128;15.422;2022-12-18T04:43:02;-6.40;99.90
23869;DHT22;12115;47.128;15.422;2022-12-18T04:45:47;-6.40;99.90
23869;DHT22;12115;47.128;15.422;2022-12-18T04:48:25;-6.50;99.90
23869;DHT22;12115;47.128;15.422;2022-12-18T04:51:14;-6.50;99.90
23869;DHT22;12115;47.128;15.422;2022-12-18T04:53:51;-6.50;99.90
23869;DHT22;12115;47.128;15.422;2022-12-18T04:56:24;-6.50;99.90
23869;DHT22;12115;47.128;15.422;2022-12-18T04:58:55;-6.50;99.90
23869;DHT22;12115;47.128;15.422;2022-12-18T05:01:42;-6.50;99.90
23869;DHT22;12115;47.128;15.422;2022-12-18T05:04:40;-6.50;99.90
23869;DHT22;12115;47.128;15.422;2022-12-18T05:07:28;-6.50;99.90
23869;DHT22;12115;47.128;15.422;2022-12-18T05:10:06;-6.50;99.90
23869;DHT22;12115;47.128;15.422;2022-12-18T05:12:38;-6.50;99.90
23869;DHT22;12115;47.128;15.422;2022-12-18T05:15:30;-6.50;99.90
23869;DHT22;12115;47.128;15.422;2022-12-18T05:18:03;-6.60;99.90
23869;DHT22;12115;47.128;15.422;2022-12-18T05:20:47;-6.60;99.90
23869;DHT22;12115;47.128;15.422;2022-12-18T05:23:15;-6.60;99.90
23869;DHT22;12115;47.128;15.422;2022-12-18T05:26:03;-6.60;99.90
23869;DHT22;12115;47.128;15.422;2022-12-18T05:31:18;-6.60;99.90
23869;DHT22;12115;47.128;15.422;2022-12-18T05:34:12;-6.60;99.90
23869;DHT22;12115;47.128;15.422;2022-12-18T05:36:42;-6.70;99.90
23869;DHT22;12115;47.128;15.422;2022-12-18T05:39:23;-6.70;99.90
23869;DHT22;12115;47.128;15.422;2022-12-18T05:41:53;-6.60;99.90
23869;DHT22;12115;47.128;15.422;2022-12-18T05:44:24;-6.70;99.90
23869;DHT22;12115;47.128;15.422;2022-12-18T05:46:55;-6.70;99.90
23869;DHT22;12115;47.128;15.422;2022-12-18T05:49:27;-6.70;99.90
23869;DHT22;12115;47.128;15.422;2022-12-18T05:51:57;-6.70;99.90
23869;DHT22;12115;47.128;15.422;2022-12-18T05:54:37;-6.60;99.90
23869;DHT22;12115;47.128;15.422;2022-12-18T05:57:10;-6.70;99.90
23869;DHT22;12115;47.128;15.422;2022-12-18T05:59:47;-6.60;99.90
23869;DHT22;12115;47.128;15.422;2022-12-18T06:02:17;-6.70;99.90
23869;DHT22;12115;47.128;15.422;2022-12-18T06:07:43;-6.60;99.90
23869;DHT22;12115;47.128;15.422;2022-12-18T06:10:17;-6.60;99.90
23869;DHT22;12115;47.128;15.422;2022-12-18T06:12:50;-6.60;99.90
23869;DHT22;12115;47.128;15.422;2022-12-18T06:15:20;-6.50;99.90
23869;DHT22;12115;47.128;15.422;2022-12-18T06:17:50;-6.50;99.90
23869;DHT22;12115;47.128;15.422;2022-12-18T06:20:36;-6.50;99.90
23869;DHT22;12115;47.128;15.422;2022-12-18T06:23:11;-6.50;99.90
23869;DHT22;12115;47.128;15.422;2022-12-18T06:26:06;-6.50;99.90
23869;DHT22;12115;47.128;15.422;2022-12-18T06:28:40;-6.50;99.90
23869;DHT22;12115;47.128;15.422;2022-12-18T06:31:13;-6.50;99.90
23869;DHT22;12115;47.128;15.422;2022-12-18T06:33:45;-6.40;99.90
23869;DHT22;12115;47.128;15.422;2022-12-18T06:36:19;-6.40;99.90
23869;DHT22;12115;47.128;15.422;2022-12-18T06:39:04;-6.40;99.90
23869;DHT22;12115;47.128;15.422;2022-12-18T06:41:40;-6.30;99.90
23869;DHT22;12115;47.128;15.422;2022-12-18T06:44:13;-6.30;99.90
23869;DHT22;12115;47.128;15.422;2022-12-18T06:46:52;-6.30;99.90
23869;DHT22;12115;47.128;15.422;2022-12-18T06:49:27;-6.20;99.90
23869;DHT22;12115;47.128;15.422;2022-12-18T06:52:01;-6.20;99.90
23869;DHT22;12115;47.128;15.422;2022-12-18T06:54:28;-6.20;99.90
23869;DHT22;12115;47.128;15.422;2022-12-18T06:57:02;-6.20;99.90
23869;DHT22;12115;47.128;15.422;2022-12-18T06:59:31;-6.10;99.90
23869;DHT22;12115;47.128;15.422;2022-12-18T07:02:04;-6.10;99.90
23869;DHT22;12115;47.128;15.422;2022-12-18T07:04:35;-6.00;99.90
23869;DHT22;12115;47.128;15.422;2022-12-18T07:07:14;-5.90;99.90
23869;DHT22;12115;47.128;15.422;2022-12-18T07:10:15;-5.80;99.90
23869;DHT22;12115;47.128;15.422;2022-12-18T07:12:50;-5.80;99.90
23869;DHT22;12115;47.128;15.422;2022-12-18T07:15:25;-5.70;99.90
23869;DHT22;12115;47.128;15.422;2022-12-18T07:18:12;-5.70;99.90
23869;DHT22;12115;47.128;15.422;2022-12-18T07:21:18;-5.70;99.90
23869;DHT22;12115;47.128;15.422;2022-12-18T07:24:08;-5.70;99.90
23869;DHT22;12115;47.128;15.422;2022-12-18T07:26:41;-5.60;99.90
23869;DHT22;12115;47.128;15.422;2022-12-18T07:29:14;-5.60;99.90
23869;DHT22;12115;47.128;15.422;2022-12-18T07:31:42;-5.50;99.90
23869;DHT22;12115;47.128;15.422;2022-12-18T07:34:15;-5.50;99.90
23869;DHT22;12115;47.128;15.422;2022-12-18T07:37:08;-5.40;99.90
23869;DHT22;12115;47.128;15.422;2022-12-18T07:39:37;-5.40;99.90
23869;DHT22;12115;47.128;15.422;2022-12-18T07:45:09;-5.20;99.90
23869;DHT22;12115;47.128;15.422;2022-12-18T07:47:39;-5.10;99.90
23869;DHT22;12115;47.128;15.422;2022-12-18T07:50:11;-5.10;99.90
23869;DHT22;12115;47.128;15.422;2022-12-18T07:52:40;-5.00;99.90
23869;DHT22;12115;47.128;15.422;2022-12-18T07:55:11;-5.00;99.90
23869;DHT22;12115;47.128;15.422;2022-12-18T07:57:50;-4.90;99.90
23869;DHT22;12115;47.128;15.422;2022-12-18T08:00:45;-4.80;99.90
23869;DHT22;12115;47.128;15.422;2022-12-18T08:03:16;-4.70;99.90
23869;DHT22;12115;47.128;15.422;2022-12-18T08:05:50;-4.60;99.90
23869;DHT22;12115;47.128;15.422;2022-12-18T08:08:18;-4.50;99.90
23869;DHT22;12115;47.128;15.422;2022-12-18T08:10:54;-4.40;99.90
23869;DHT22;12115;47.128;15.422;2022-12-18T08:13:30;-4.30;99.90
23869;DHT22;12115;47.128;15.422;2022-12-18T08:16:03;-4.20;99.90
23869;DHT22;12115;47.128;15.422;2022-12-18T08:18:37;-4.10;99.90
23869;DHT22;12115;47.128;15.422;2022-12-18T08:21:22;-4.00;99.90
23869;DHT22;12115;47.128;15.422;2022-12-18T08:23:53;-3.90;99.90
23869;DHT22;12115;47.128;15.422;2022-12-18T08:26:29;-3.80;99.90
23869;DHT22;12115;47.128;15.422;2022-12-18T08:29:09;-3.70;99.90
23869;DHT22;12115;47.128;15.422;2022-12-18T08:31:54;-3.60;99.90
23869;DHT22;12115;47.128;15.422;2022-12-18T08:34:25;-3.30;99.90
23869;DHT22;12115;47.128;15.422;2022-12-18T08:36:58;-2.60;99.90
23869;DHT22;12115;47.128;15.422;2022-12-18T08:39:31;-1.80;99.90
23869;DHT22;12115;47.128;15.422;2022-12-18T08:42:02;-1.00;99.90
23869;DHT22;12115;47.128;15.422;2022-12-18T08:44:50;-0.30;99.90
23869;DHT22;12115;47.128;15.422;2022-12-18T08:47:25;0.20;99.90
23869;DHT22;12115;47.128;15.422;2022-12-18T08:49:58;0.40;99.90
23869;DHT22;12115;47.128;15.422;2022-12-18T08:52:42;0.60;99.90
23869;DHT22;12115;47.128;15.422;2022-12-18T08:55:28;0.70;99.90
23869;DHT22;12115;47.128;15.422;2022-12-18T08:58:07;0.60;99.90
23869;DHT22;12115;47.128;15.422;2022-12-18T09:00:41;0.60;99.90
23869;DHT22;12115;47.128;15.422;2022-12-18T09:03:15;0.40;99.90
23869;DHT22;12115;47.128;15.422;2022-12-18T09:05:54;0.50;99.90
23869;DHT22;12115;47.128;15.422;2022-12-18T09:08:28;0.30;99.90
23869;DHT22;12115;47.128;15.422;2022-12-18T09:11:09;0.30;99.90
23869;DHT22;12115;47.128;15.422;2022-12-18T09:13:44;0.50;99.90
23869;DHT22;12115;47.128;15.422;2022-12-18T09:16:15;0.60;99.90
23869;DHT22;12115;47.128;15.422;2022-12-18T09:18:43;0.70;99.90
23869;DHT22;12115;47.128;15.422;2022-12-18T09:21:19;0.70;99.90
23869;DHT22;12115;47.128;15.422;2022-12-18T09:23:58;0.90;99.90
23869;DHT22;12115;47.128;15.422;2022-12-18T09:26:28;1.00;99.90
23869;DHT22;12115;47.128;15.422;2022-12-18T09:28:58;1.10;99.90
23869;DHT22;12115;47.128;15.422;2022-12-18T09:31:28;1.20;99.90
23869;DHT22;12115;47.128;15.422;2022-12-18T09:33:59;1.20;99.90
23869;DHT22;12115;47.128;15.422;2022-12-18T09:36:26;1.30;99.90
23869;DHT22;12115;47.128;15.422;2022-12-18T09:39:00;1.30;99.90
23869;DHT22;12115;47.128;15.422;2022-12-18T09:41:42;1.50;99.90
23869;DHT22;12115;47.128;15.422;2022-12-18T09:44:40;1.70;99.90
23869;DHT22;12115;47.128;15.422;2022-12-18T09:47:30;1.80;99.90
23869;DHT22;12115;47.128;15.422;2022-12-18T09:50:24;1.70;99.90
23869;DHT22;12115;47.128;15.422;2022-12-18T09:53:02;1.60;99.90
23869;DHT22;12115;47.128;15.422;2022-12-18T09:55:47;1.60;99.90
23869;DHT22;12115;47.128;15.422;2022-12-18T09:58:30;1.30;99.90
23869;DHT22;12115;47.128;15.422;2022-12-18T10:00:59;1.70;99.90
23869;DHT22;12115;47.128;15.422;2022-12-18T10:03:30;1.80;99.90
23869;DHT22;12115;47.128;15.422;2022-12-18T10:06:18;1.90;99.90
23869;DHT22;12115;47.128;15.422;2022-12-18T10:17:03;2.40;99.90
23869;DHT22;12115;47.128;15.422;2022-12-18T10:25:59;2.60;99.90
23869;DHT22;12115;47.128;15.422;2022-12-18T10:28:35;2.70;99.90
23869;DHT22;12115;47.128;15.422;2022-12-18T10:31:10;2.90;99.90
23869;DHT22;12115;47.128;15.422;2022-12-18T10:33:44;3.60;99.90
23869;DHT22;12115;47.128;15.422;2022-12-18T10:36:19;5.30;99.90
23869;DHT22;12115;47.128;15.422;2022-12-18T10:38:52;7.00;99.90
23869;DHT22;12115;47.128;15.422;2022-12-18T10:41:27;7.50;99.90
23869;DHT22;12115;47.128;15.422;2022-12-18T10:44:23;5.20;99.90
23869;DHT22;12115;47.128;15.422;2022-12-18T10:47:04;3.60;99.90
23869;DHT22;12115;47.128;15.422;2022-12-18T10:49:51;3.00;99.90
23869;DHT22;12115;47.128;15.422;2022-12-18T10:52:25;2.80;99.90
23869;DHT22;12115;47.128;15.422;2022-12-18T10:55:02;2.70;99.90
23869;DHT22;12115;47.128;15.422;2022-12-18T10:57:46;2.40;99.90
23869;DHT22;12115;47.128;15.422;2022-12-18T11:00:29;2.40;99.90
23869;DHT22;12115;47.128;15.422;2022-12-18T11:02:58;4.60;99.90
23869;DHT22;12115;47.128;15.422;2022-12-18T11:05:33;5.10;99.90
23869;DHT22;12115;47.128;15.422;2022-12-18T11:08:10;6.10;99.90
23869;DHT22;12115;47.128;15.422;2022-12-18T11:10:57;5.30;99.90
23869;DHT22;12115;47.128;15.422;2022-12-18T11:13:31;4.20;99.90
23869;DHT22;12115;47.128;15.422;2022-12-18T11:16:20;3.60;99.90
23869;DHT22;12115;47.128;15.422;2022-12-18T11:19:21;3.40;99.90
23869;DHT22;12115;47.128;15.422;2022-12-18T11:21:51;3.00;99.90
23869;DHT22;12115;47.128;15.422;2022-12-18T11:24:35;2.80;99.90
23869;DHT22;12115;47.128;15.422;2022-12-18T11:27:18;2.30;99.90
23869;DHT22;12115;47.128;15.422;2022-12-18T11:30:13;1.80;99.90
23869;DHT22;12115;47.128;15.422;2022-12-18T11:35:57;1.50;99.90
23869;DHT22;12115;47.128;15.422;2022-12-18T11:38:46;1.40;99.90
23869;DHT22;12115;47.128;15.422;2022-12-18T11:42:33;1.30;99.90
23869;DHT22;12115;47.128;15.422;2022-12-18T11:45:03;1.20;99.90
23869;DHT22;12115;47.128;15.422;2022-12-18T11:50:58;1.00;99.90
23869;DHT22;12115;47.128;15.422;2022-12-18T11:53:30;0.90;99.90
23869;DHT22;12115;47.128;15.422;2022-12-18T11:56:32;0.80;99.90
23869;DHT22;12115;47.128;15.422;2022-12-18T12:02:19;0.60;99.90
23869;DHT22;12115;47.128;15.422;2022-12-18T12:10:40;0.60;99.90
23869;DHT22;12115;47.128;15.422;2022-12-18T12:13:22;0.50;99.90
23869;DHT22;12115;47.128;15.422;2022-12-18T12:27:16;0.20;99.90
23869;DHT22;12115;47.128;15.422;2022-12-18T12:30:16;0.20;99.90
23869;DHT22;12115;47.128;15.422;2022-12-18T12:33:25;0.20;99.90
23869;DHT22;12115;47.128;15.422;2022-12-18T12:36:10;0.30;99.90
23869;DHT22;12115;47.128;15.422;2022-12-18T12:38:55;0.30;99.90
23869;DHT22;12115;47.128;15.422;2022-12-18T12:41:34;0.30;99.90
23869;DHT22;12115;47.128;15.422;2022-12-18T12:44:39;0.40;99.90
23869;DHT22;12115;47.128;15.422;2022-12-18T12:47:35;0.40;99.90
23869;DHT22;12115;47.128;15.422;2022-12-18T12:50:13;0.50;99.90
23869;DHT22;12115;47.128;15.422;2022-12-18T12:52:52;0.50;99.90
23869;DHT22;12115;47.128;15.422;2022-12-18T12:55:28;0.20;99.90
23869;DHT22;12115;47.128;15.422;2022-12-18T13:01:08;0.00;99.90
23869;DHT22;12115;47.128;15.422;2022-12-18T13:03:46;-0.20;99.90
23869;DHT22;12115;47.128;15.422;2022-12-18T13:09:13;-0.10;99.90
23869;DHT22;12115;47.128;15.422;2022-12-18T13:11:47;0.00;99.90
23869;DHT22;12115;47.128;15.422;2022-12-18T13:14:42;0.00;99.90
23869;DHT22;12115;47.128;15.422;2022-12-18T13:17:32;0.00;99.90
23869;DHT22;12115;47.128;15.422;2022-12-18T13:20:10;0.00;99.90
23869;DHT22;12115;47.128;15.422;2022-12-18T13:22:48;-0.10;99.90
23869;DHT22;12115;47.128;15.422;2022-12-18T13:25:36;-0.20;99.90
23869;DHT22;12115;47.128;15.422;2022-12-18T13:28:16;-0.20;99.90
23869;DHT22;12115;47.128;15.422;2022-12-18T13:30:59;-0.30;99.90
23869;DHT22;12115;47.128;15.422;2022-12-18T13:36:16;-0.30;99.90
23869;DHT22;12115;47.128;15.422;2022-12-18T13:38:53;-0.30;99.90
23869;DHT22;12115;47.128;15.422;2022-12-18T13:41:34;-0.30;99.90
23869;DHT22;12115;47.128;15.422;2022-12-18T13:46:54;-0.30;99.90
23869;DHT22;12115;47.128;15.422;2022-12-18T13:49:37;-0.30;99.90
23869;DHT22;12115;47.128;15.422;2022-12-18T13:52:28;-0.30;99.90
23869;DHT22;12115;47.128;15.422;2022-12-18T13:55:04;-0.30;99.90
23869;DHT22;12115;47.128;15.422;2022-12-18T13:57:37;-0.40;99.90
23869;DHT22;12115;47.128;15.422;2022-12-18T14:02:57;-0.30;99.90
23869;DHT22;12115;47.128;15.422;2022-12-18T14:05:36;-0.30;99.90
23869;DHT22;12115;47.128;15.422;2022-12-18T14:08:16;-0.20;99.90
23869;DHT22;12115;47.128;15.422;2022-12-18T14:10:50;-0.20;99.90
23869;DHT22;12115;47.128;15.422;2022-12-18T14:13:28;-0.20;99.90
23869;DHT22;12115;47.128;15.422;2022-12-18T14:15:57;-0.30;99.90
23869;DHT22;12115;47.128;15.422;2022-12-18T14:18:55;-0.40;99.90
23869;DHT22;12115;47.128;15.422;2022-12-18T14:21:36;-0.40;99.90
23869;DHT22;12115;47.128;15.422;2022-12-18T14:24:22;-0.30;99.90
23869;DHT22;12115;47.128;15.422;2022-12-18T14:26:50;-0.60;99.90
23869;DHT22;12115;47.128;15.422;2022-12-18T14:29:29;-0.60;99.90
23869;DHT22;12115;47.128;15.422;2022-12-18T14:32:19;-0.50;99.90
23869;DHT22;12115;47.128;15.422;2022-12-18T14:34:52;-0.50;99.90
23869;DHT22;12115;47.128;15.422;2022-12-18T14:37:27;-0.50;99.90
23869;DHT22;12115;47.128;15.422;2022-12-18T14:39:59;-0.60;99.90
23869;DHT22;12115;47.128;15.422;2022-12-18T14:42:36;-0.60;99.90
23869;DHT22;12115;47.128;15.422;2022-12-18T14:45:34;-0.60;99.90
23869;DHT22;12115;47.128;15.422;2022-12-18T14:48:19;-0.60;99.90
23869;DHT22;12115;47.128;15.422;2022-12-18T14:51:12;-0.50;99.90
23869;DHT22;12115;47.128;15.422;2022-12-18T14:53:54;-0.60;99.90
23869;DHT22;12115;47.128;15.422;2022-12-18T14:56:35;-0.60;99.90
23869;DHT22;12115;47.128;15.422;2022-12-18T14:59:11;-0.70;99.90
23869;DHT22;12115;47.128;15.422;2022-12-18T15:04:36;-0.80;99.90
23869;DHT22;12115;47.128;15.422;2022-12-18T15:07:25;-0.80;99.90
23869;DHT22;12115;47.128;15.422;2022-12-18T15:10:45;-0.80;99.90
23869;DHT22;12115;47.128;15.422;2022-12-18T15:13:06;-0.80;99.90
23869;DHT22;12115;47.128;15.422;2022-12-18T15:18:17;-0.70;99.90
23869;DHT22;12115;47.128;15.422;2022-12-18T15:20:54;-0.70;99.90
23869;DHT22;12115;47.128;15.422;2022-12-18T15:23:46;-0.70;99.90
23869;DHT22;12115;47.128;15.422;2022-12-18T15:26:20;-0.70;99.90
23869;DHT22;12115;47.128;15.422;2022-12-18T15:28:53;-0.70;99.90
23869;DHT22;12115;47.128;15.422;2022-12-18T15:31:35;-0.70;99.90
23869;DHT22;12115;47.128;15.422;2022-12-18T15:34:18;-0.60;99.90
23869;DHT22;12115;47.128;15.422;2022-12-18T15:36:50;-0.60;99.90
23869;DHT22;12115;47.128;15.422;2022-12-18T15:39:21;-0.70;99.90
23869;DHT22;12115;47.128;15.422;2022-12-18T15:41:54;-0.60;99.90
23869;DHT22;12115;47.128;15.422;2022-12-18T15:44:43;-0.60;99.90
23869;DHT22;12115;47.128;15.422;2022-12-18T15:47:15;-0.70;99.90
23869;DHT22;12115;47.128;15.422;2022-12-18T15:49:52;-0.60;99.90
23869;DHT22;12115;47.128;15.422;2022-12-18T15:52:26;-0.70;99.90
23869;DHT22;12115;47.128;15.422;2022-12-18T15:55:14;-0.80;99.90
23869;DHT22;12115;47.128;15.422;2022-12-18T15:58:10;-0.80;99.90
23869;DHT22;12115;47.128;15.422;2022-12-18T16:00:44;-0.90;99.90
23869;DHT22;12115;47.128;15.422;2022-12-18T16:03:21;-0.80;99.90
23869;DHT22;12115;47.128;15.422;2022-12-18T16:05:56;-0.90;99.90
23869;DHT22;12115;47.128;15.422;2022-12-18T16:08:32;-0.90;99.90
23869;DHT22;12115;47.128;15.422;2022-12-18T16:11:10;-1.00;99.90
23869;DHT22;12115;47.128;15.422;2022-12-18T16:13:48;-1.00;99.90
23869;DHT22;12115;47.128;15.422;2022-12-18T16:16:21;-1.00;99.90
23869;DHT22;12115;47.128;15.422;2022-12-18T16:18:54;-0.90;99.90
23869;DHT22;12115;47.128;15.422;2022-12-18T16:21:28;-0.90;99.90
23869;DHT22;12115;47.128;15.422;2022-12-18T16:24:03;-0.90;99.90
23869;DHT22;12115;47.128;15.422;2022-12-18T16:26:49;-0.80;99.90
23869;DHT22;12115;47.128;15.422;2022-12-18T16:29:27;-0.80;99.90
23869;DHT22;12115;47.128;15.422;2022-12-18T16:32:06;-0.90;99.90
23869;DHT22;12115;47.128;15.422;2022-12-18T16:34:43;-0.80;99.90
23869;DHT22;12115;47.128;15.422;2022-12-18T16:37:17;-0.80;99.90
23869;DHT22;12115;47.128;15.422;2022-12-18T16:40:01;-0.80;99.90
23869;DHT22;12115;47.128;15.422;2022-12-18T16:42:45;-0.90;99.90
23869;DHT22;12115;47.128;15.422;2022-12-18T16:45:18;-0.90;99.90
23869;DHT22;12115;47.128;15.422;2022-12-18T16:47:49;-0.90;99.90
23869;DHT22;12115;47.128;15.422;2022-12-18T16:50:19;-0.90;99.90
23869;DHT22;12115;47.128;15.422;2022-12-18T16:52:50;-0.80;99.90
23869;DHT22;12115;47.128;15.422;2022-12-18T16:55:19;-0.80;99.90
23869;DHT22;12115;47.128;15.422;2022-12-18T16:57:58;-0.80;99.90
23869;DHT22;12115;47.128;15.422;2022-12-18T17:00:42;-0.80;99.90
23869;DHT22;12115;47.128;15.422;2022-12-18T17:03:13;-0.90;99.90
23869;DHT22;12115;47.128;15.422;2022-12-18T17:05:50;-0.80;99.90
23869;DHT22;12115;47.128;15.422;2022-12-18T17:08:25;-0.90;99.90
23869;DHT22;12115;47.128;15.422;2022-12-18T17:11:06;-0.80;99.90
23869;DHT22;12115;47.128;15.422;2022-12-18T17:13:38;-0.80;99.90
23869;DHT22;12115;47.128;15.422;2022-12-18T17:16:08;-0.80;99.90
23869;DHT22;12115;47.128;15.422;2022-12-18T17:18:44;-0.80;99.90
23869;DHT22;12115;47.128;15.422;2022-12-18T17:21:18;-0.80;99.90
23869;DHT22;12115;47.128;15.422;2022-12-18T17:24:02;-0.80;99.90
23869;DHT22;12115;47.128;15.422;2022-12-18T17:26:38;-0.80;99.90
23869;DHT22;12115;47.128;15.422;2022-12-18T17:29:17;-0.70;99.90
23869;DHT22;12115;47.128;15.422;2022-12-18T17:31:50;-0.80;99.90
23869;DHT22;12115;47.128;15.422;2022-12-18T17:34:30;-0.80;99.90
23869;DHT22;12115;47.128;15.422;2022-12-18T17:37:02;-0.80;99.90
23869;DHT22;12115;47.128;15.422;2022-12-18T17:39:48;-0.80;99.90
23869;DHT22;12115;47.128;15.422;2022-12-18T17:42:24;-0.90;99.90
23869;DHT22;12115;47.128;15.422;2022-12-18T17:45:04;-0.90;99.90
23869;DHT22;12115;47.128;15.422;2022-12-18T17:47:40;-0.90;99.90
23869;DHT22;12115;47.128;15.422;2022-12-18T17:50:15;-0.80;99.90
23869;DHT22;12115;47.128;15.422;2022-12-18T17:52:55;-0.80;99.90
23869;DHT22;12115;47.128;15.422;2022-12-18T17:55:29;-0.90;99.90
23869;DHT22;12115;47.128;15.422;2022-12-18T17:58:05;-0.90;99.90
23869;DHT22;12115;47.128;15.422;2022-12-18T18:00:43;-0.90;99.90
23869;DHT22;12115;47.128;15.422;2022-12-18T18:03:21;-1.00;99.90
23869;DHT22;12115;47.128;15.422;2022-12-18T18:06:17;-0.90;99.90
23869;DHT22;12115;47.128;15.422;2022-12-18T18:08:56;-1.00;99.90
23869;DHT22;12115;47.128;15.422;2022-12-18T18:11:48;-1.00;99.90
23869;DHT22;12115;47.128;15.422;2022-12-18T18:14:47;-1.10;99.90
23869;DHT22;12115;47.128;15.422;2022-12-18T18:17:27;-1.10;99.90